createdAt,value
2018-06-15T00:00:56.513Z,14.40
2018-06-15T00:03:25.214Z,14.30
2018-06-15T00:05:53.712Z,14.40
2018-06-15T00:08:22.205Z,14.10
2018-06-15T00:10:51.302Z,14.00
2018-06-15T00:13:19.807Z,14.00
2018-06-15T00:15:48.311Z,14.10
2018-06-15T00:18:16.856Z,14.10
2018-06-15T00:20:45.377Z,14.00
2018-06-15T00:23:13.878Z,14.10
2018-06-15T00:25:42.589Z,14.00
2018-06-15T00:28:11.234Z,14.10
2018-06-15T00:30:39.757Z,14.10
2018-06-15T00:33:08.264Z,14.10
2018-06-15T00:38:05.251Z,14.00
2018-06-15T00:40:33.751Z,14.00
2018-06-15T00:43:02.378Z,13.90
2018-06-15T00:47:59.047Z,14.00
2018-06-15T00:50:29.690Z,14.30
2018-06-15T00:52:58.180Z,14.10
2018-06-15T00:55:26.690Z,14.10
2018-06-15T00:57:55.200Z,13.90
2018-06-15T01:00:23.671Z,14.00
2018-06-15T01:02:52.214Z,14.00
2018-06-15T01:05:20.872Z,14.40
2018-06-15T01:07:49.561Z,14.00
2018-06-15T01:10:18.048Z,14.00
2018-06-15T01:12:46.645Z,14.00
2018-06-15T01:15:15.144Z,14.10
2018-06-15T01:17:43.656Z,13.80
2018-06-15T01:22:40.356Z,14.00
2018-06-15T01:25:08.856Z,14.40
2018-06-15T01:27:37.369Z,14.30
2018-06-15T01:30:06.388Z,14.10
2018-06-15T01:32:34.843Z,13.70
2018-06-15T01:37:31.569Z,13.50
2018-06-15T01:40:00.244Z,13.70
2018-06-15T01:42:28.771Z,13.50
2018-06-15T01:44:57.333Z,13.50
2018-06-15T01:49:53.982Z,13.80
2018-06-15T01:52:22.510Z,13.60
2018-06-15T01:54:51.202Z,13.70
2018-06-15T01:57:19.909Z,13.30
2018-06-15T01:59:48.365Z,13.60
2018-06-15T02:02:17.241Z,13.40
2018-06-15T02:04:45.712Z,13.20
2018-06-15T02:07:14.217Z,13.50
2018-06-15T02:09:42.700Z,13.50
2018-06-15T02:12:11.358Z,13.30
2018-06-15T02:14:39.837Z,13.30
2018-06-15T02:17:08.343Z,13.30
2018-06-15T02:19:37.246Z,13.50
2018-06-15T02:22:05.737Z,13.40
2018-06-15T02:24:34.220Z,13.30
2018-06-15T02:27:02.709Z,13.30
2018-06-15T02:29:31.215Z,13.10
2018-06-15T02:31:59.717Z,13.00
2018-06-15T02:34:28.235Z,13.10
2018-06-15T02:36:56.757Z,13.40
2018-06-15T02:39:25.275Z,13.70
2018-06-15T02:41:54.080Z,13.70
2018-06-15T02:44:22.849Z,13.50
2018-06-15T02:46:51.410Z,13.30
2018-06-15T02:49:19.945Z,13.70
2018-06-15T02:51:48.507Z,13.20
2018-06-15T02:54:17.034Z,13.10
2018-06-15T02:56:45.561Z,12.80
2018-06-15T02:59:14.042Z,12.70
2018-06-15T03:01:42.525Z,12.90
2018-06-15T03:04:11.040Z,13.30
2018-06-15T03:06:39.527Z,13.30
2018-06-15T03:13:44.007Z,13.10
2018-06-15T03:16:12.488Z,13.00
2018-06-15T03:18:40.954Z,12.70
2018-06-15T03:21:09.453Z,12.80
2018-06-15T03:23:37.960Z,12.60
2018-06-15T03:28:34.815Z,13.40
2018-06-15T03:31:03.357Z,13.60
2018-06-15T03:33:31.844Z,13.20
2018-06-15T03:36:00.324Z,13.30
2018-06-15T03:38:28.804Z,13.00
2018-06-15T03:40:57.249Z,13.10
2018-06-15T03:43:25.932Z,12.80
2018-06-15T03:45:54.442Z,12.50
2018-06-15T03:48:23.698Z,12.90
2018-06-15T03:50:52.278Z,13.00
2018-06-15T03:53:20.969Z,12.90
2018-06-15T03:55:49.495Z,12.70
2018-06-15T03:58:18.007Z,12.60
2018-06-15T04:03:14.692Z,12.60
2018-06-15T04:05:43.164Z,12.70
2018-06-15T04:08:11.638Z,12.60
2018-06-15T04:10:40.233Z,12.80
2018-06-15T04:13:08.936Z,12.40
2018-06-15T04:15:37.404Z,12.40
2018-06-15T04:18:07.820Z,12.40
2018-06-15T04:20:37.834Z,12.70
2018-06-15T04:23:06.355Z,13.00
2018-06-15T04:25:34.833Z,13.10
2018-06-15T04:28:03.501Z,12.70
2018-06-15T04:30:32.672Z,12.80
2018-06-15T04:33:01.232Z,12.80
2018-06-15T04:35:29.773Z,12.70
2018-06-15T04:37:58.269Z,12.40
2018-06-15T04:40:26.840Z,12.30
2018-06-15T04:42:55.337Z,12.40
2018-06-15T04:45:23.865Z,12.50
2018-06-15T04:47:52.345Z,12.60
2018-06-15T04:50:20.907Z,12.50
2018-06-15T04:52:49.733Z,12.40
2018-06-15T04:55:18.277Z,12.70
2018-06-15T04:57:46.811Z,12.70
2018-06-15T05:00:15.291Z,12.70
2018-06-15T05:02:43.871Z,12.70
2018-06-15T05:05:12.338Z,13.00
2018-06-15T05:07:40.841Z,13.20
2018-06-15T05:10:09.377Z,13.10
2018-06-15T05:12:37.931Z,13.10
2018-06-15T05:15:06.518Z,13.40
2018-06-15T05:17:35.822Z,13.70
2018-06-15T05:20:04.758Z,13.40
2018-06-15T05:22:33.271Z,13.80
2018-06-15T05:25:01.865Z,14.00
2018-06-15T05:27:30.371Z,14.00
2018-06-15T05:29:59.049Z,13.90
2018-06-15T05:32:27.754Z,14.10
2018-06-15T05:34:56.259Z,14.00
2018-06-15T05:37:24.964Z,14.50
2018-06-15T05:39:53.611Z,14.10
2018-06-15T05:42:22.313Z,14.40
2018-06-15T05:44:51.113Z,14.20
2018-06-15T05:47:19.696Z,14.10
2018-06-15T05:49:48.233Z,14.20
2018-06-15T05:52:17.196Z,14.50
2018-06-15T05:54:45.690Z,14.40
2018-06-15T05:57:14.684Z,14.40
2018-06-15T05:59:43.658Z,14.50
2018-06-15T06:02:12.158Z,14.40
2018-06-15T06:04:40.735Z,14.30
2018-06-15T06:07:09.396Z,14.20
2018-06-15T06:09:37.966Z,14.20
2018-06-15T06:12:06.488Z,14.60
2018-06-15T06:14:35.054Z,14.70
2018-06-15T06:17:03.564Z,14.70
2018-06-15T06:19:32.238Z,14.60
2018-06-15T06:22:00.720Z,14.50
2018-06-15T06:24:29.229Z,14.60
2018-06-15T06:26:57.776Z,14.90
2018-06-15T06:29:26.279Z,14.90
2018-06-15T06:31:55.062Z,14.90
2018-06-15T06:34:24.489Z,15.20
2018-06-15T06:36:53.000Z,14.90
2018-06-15T06:39:21.487Z,14.80
2018-06-15T06:41:51.064Z,14.70
2018-06-15T06:44:19.638Z,14.80
2018-06-15T06:46:48.166Z,15.10
2018-06-15T06:49:16.678Z,15.40
2018-06-15T06:51:45.486Z,15.20
2018-06-15T06:54:13.976Z,15.20
2018-06-15T06:56:42.488Z,15.00
2018-06-15T06:59:11.112Z,15.40
2018-06-15T07:01:39.634Z,15.50
2018-06-15T07:04:08.584Z,15.40
2018-06-15T07:06:37.106Z,15.20
2018-06-15T07:09:07.194Z,15.50
2018-06-15T07:11:35.945Z,15.80
2018-06-15T07:14:04.517Z,15.80
2018-06-15T07:16:33.015Z,16.00
2018-06-15T07:19:01.568Z,16.00
2018-06-15T07:21:30.288Z,16.30
2018-06-15T07:23:59.036Z,16.50
2018-06-15T07:26:27.669Z,16.50
2018-06-15T07:28:56.778Z,16.80
2018-06-15T07:31:25.324Z,16.90
2018-06-15T07:33:53.993Z,16.70
2018-06-15T07:36:22.712Z,16.70
2018-06-15T07:38:51.207Z,16.60
2018-06-15T07:41:19.699Z,16.80
2018-06-15T07:43:48.158Z,16.80
2018-06-15T07:46:16.653Z,17.10
2018-06-15T07:48:45.161Z,17.10
2018-06-15T07:51:13.884Z,17.20
2018-06-15T07:53:42.381Z,17.50
2018-06-15T07:56:11.209Z,17.30
2018-06-15T07:58:39.695Z,17.30
2018-06-15T08:01:08.207Z,17.40
2018-06-15T08:03:36.883Z,17.50
2018-06-15T08:06:05.530Z,17.60
2018-06-15T08:08:33.995Z,17.70
2018-06-15T08:13:30.716Z,17.90
2018-06-15T08:15:59.241Z,17.80
2018-06-15T08:18:27.735Z,17.90
2018-06-15T08:20:56.267Z,17.80
2018-06-15T08:23:24.743Z,17.80
2018-06-15T08:25:53.257Z,17.90
2018-06-15T08:28:21.743Z,18.00
2018-06-15T08:30:50.254Z,18.20
2018-06-15T08:33:18.727Z,18.00
2018-06-15T08:35:47.393Z,18.10
2018-06-15T08:38:15.955Z,17.90
2018-06-15T08:40:44.404Z,18.00
2018-06-15T08:43:12.921Z,18.40
2018-06-15T08:45:41.431Z,18.20
2018-06-15T08:48:09.987Z,18.10
2018-06-15T08:50:38.873Z,18.40
2018-06-15T08:53:07.387Z,18.60
2018-06-15T08:55:35.981Z,18.70
2018-06-15T08:58:04.632Z,18.80
2018-06-15T09:00:33.127Z,18.90
2018-06-15T09:03:01.798Z,18.60
2018-06-15T09:05:30.336Z,18.70
2018-06-15T09:10:27.035Z,19.00
2018-06-15T09:12:55.541Z,19.00
2018-06-15T09:15:24.222Z,19.10
2018-06-15T09:17:54.116Z,19.10
2018-06-15T09:20:22.671Z,19.10
2018-06-15T09:22:51.567Z,19.00
2018-06-15T09:25:20.093Z,19.00
2018-06-15T09:27:48.704Z,19.00
2018-06-15T09:30:17.197Z,19.10
2018-06-15T09:32:45.803Z,19.20
2018-06-15T09:35:14.340Z,19.20
2018-06-15T09:37:42.836Z,19.20
2018-06-15T09:40:11.652Z,19.20
2018-06-15T09:42:40.125Z,19.40
2018-06-15T09:45:08.630Z,19.40
2018-06-15T09:47:37.134Z,19.50
2018-06-15T09:50:05.681Z,19.70
2018-06-15T09:52:34.416Z,19.80
2018-06-15T09:57:31.793Z,19.80
2018-06-15T10:02:28.593Z,19.90
2018-06-15T10:04:57.250Z,20.20
2018-06-15T10:07:25.717Z,20.30
2018-06-15T10:09:54.386Z,20.40
2018-06-15T10:12:23.017Z,20.40
2018-06-15T10:14:51.513Z,20.30
2018-06-15T10:17:20.095Z,20.40
2018-06-15T10:19:48.734Z,20.30
2018-06-15T10:22:17.445Z,20.50
2018-06-15T10:24:46.019Z,20.60
2018-06-15T10:27:15.148Z,20.60
2018-06-15T10:29:43.671Z,20.40
2018-06-15T10:32:12.228Z,20.40
2018-06-15T10:34:40.752Z,20.60
2018-06-15T10:37:09.253Z,20.70
2018-06-15T10:39:38.038Z,20.60
2018-06-15T10:42:06.576Z,20.70
2018-06-15T10:47:03.436Z,20.50
2018-06-15T10:49:32.029Z,20.70
2018-06-15T10:52:00.580Z,20.90
2018-06-15T10:54:29.084Z,20.80
2018-06-15T10:56:57.601Z,20.80
2018-06-15T10:59:26.087Z,21.10
2018-06-15T11:01:55.162Z,21.00
2018-06-15T11:04:23.678Z,21.00
2018-06-15T11:06:52.218Z,20.90
2018-06-15T11:09:20.713Z,21.10
2018-06-15T11:11:49.198Z,21.30
2018-06-15T11:14:17.968Z,21.20
2018-06-15T11:16:46.490Z,21.10
2018-06-15T11:19:15.004Z,20.90
2018-06-15T11:21:43.568Z,20.80
2018-06-15T11:24:12.203Z,20.70
2018-06-15T11:26:40.778Z,20.60
2018-06-15T11:29:09.526Z,20.70
2018-06-15T11:31:38.053Z,20.90
2018-06-15T11:34:06.753Z,21.10
2018-06-15T11:36:35.294Z,20.80
2018-06-15T11:39:05.152Z,20.90
2018-06-15T11:41:33.677Z,21.00
2018-06-15T11:44:02.185Z,21.00
2018-06-15T11:46:30.874Z,21.40
2018-06-15T11:48:59.385Z,21.40
2018-06-15T11:51:27.961Z,21.30
2018-06-15T11:53:56.506Z,21.30
2018-06-15T11:56:25.608Z,21.40
2018-06-15T11:58:54.081Z,21.40
2018-06-15T12:01:22.621Z,21.20
2018-06-15T12:06:19.433Z,21.30
2018-06-15T12:08:47.957Z,21.40
2018-06-15T12:11:16.466Z,21.40
2018-06-15T12:13:45.195Z,21.40
2018-06-15T12:16:13.737Z,21.30
2018-06-15T12:18:42.248Z,21.40
2018-06-15T12:21:10.852Z,21.40
2018-06-15T12:23:39.346Z,21.30
2018-06-15T12:26:08.142Z,21.30
2018-06-15T12:28:36.652Z,21.30
2018-06-15T12:31:05.197Z,21.30
2018-06-15T12:33:33.748Z,21.10
2018-06-15T12:36:02.507Z,21.00
2018-06-15T12:38:31.052Z,21.00
2018-06-15T12:40:59.602Z,21.00
2018-06-15T12:43:28.150Z,20.90
2018-06-15T12:45:56.950Z,20.90
2018-06-15T12:48:25.780Z,20.80
2018-06-15T12:50:54.624Z,20.80
2018-06-15T12:53:23.150Z,20.80
2018-06-15T12:55:51.978Z,20.80
2018-06-15T12:58:20.675Z,20.80
2018-06-15T13:00:49.212Z,20.70
2018-06-15T13:03:17.768Z,20.80
2018-06-15T13:05:46.616Z,20.70
2018-06-15T13:08:15.793Z,20.70
2018-06-15T13:10:44.321Z,20.80
2018-06-15T13:13:12.888Z,20.90
2018-06-15T13:15:41.409Z,21.00
2018-06-15T13:18:09.956Z,21.10
2018-06-15T13:20:38.570Z,21.20
2018-06-15T13:23:07.204Z,21.40
2018-06-15T13:25:35.895Z,21.60
2018-06-15T13:28:04.583Z,21.60
2018-06-15T13:30:33.576Z,21.30
2018-06-15T13:33:02.126Z,21.40
2018-06-15T13:35:30.655Z,21.20
2018-06-15T13:37:59.146Z,21.20
2018-06-15T13:40:27.720Z,21.30
2018-06-15T13:42:56.526Z,21.20
2018-06-15T13:45:25.575Z,21.20
2018-06-15T13:47:54.116Z,21.50
2018-06-15T13:50:22.667Z,21.50
2018-06-15T13:52:51.291Z,21.50
2018-06-15T13:55:19.809Z,21.80
2018-06-15T13:57:48.467Z,21.60
2018-06-15T14:00:17.094Z,21.50
2018-06-15T14:02:45.560Z,21.60
2018-06-15T14:05:14.549Z,21.60
2018-06-15T14:07:43.013Z,21.30
2018-06-15T14:10:12.376Z,21.60
2018-06-15T14:12:40.929Z,21.50
2018-06-15T14:15:09.473Z,21.40
2018-06-15T14:17:37.992Z,21.30
2018-06-15T14:20:06.550Z,21.10
2018-06-15T14:22:35.027Z,21.00
2018-06-15T14:25:04.225Z,21.40
2018-06-15T14:27:32.938Z,21.20
2018-06-15T14:30:01.468Z,21.20
2018-06-15T14:32:30.098Z,21.30
2018-06-15T14:34:58.646Z,21.20
2018-06-15T14:37:27.172Z,21.10
2018-06-15T14:39:55.707Z,21.00
2018-06-15T14:42:24.232Z,20.80
2018-06-15T14:44:52.874Z,20.80
2018-06-15T14:47:21.619Z,20.70
2018-06-15T14:49:50.205Z,20.60
2018-06-15T14:52:18.930Z,20.50
2018-06-15T14:54:47.477Z,20.60
2018-06-15T14:57:16.275Z,20.70
2018-06-15T14:59:44.791Z,20.80
2018-06-15T15:02:13.359Z,21.10
2018-06-15T15:04:41.876Z,21.10
2018-06-15T15:07:10.640Z,21.20
2018-06-15T15:09:39.312Z,21.50
2018-06-15T15:12:07.999Z,21.40
2018-06-15T15:14:36.514Z,21.50
2018-06-15T15:19:33.300Z,21.30
2018-06-15T15:22:01.891Z,21.30
2018-06-15T15:24:30.451Z,21.30
2018-06-15T15:26:58.988Z,21.30
2018-06-15T15:29:27.539Z,21.10
2018-06-15T15:31:57.640Z,21.00
2018-06-15T15:34:26.134Z,20.90
2018-06-15T15:36:54.720Z,20.90
2018-06-15T15:39:23.268Z,20.90
2018-06-15T15:41:51.793Z,20.80
2018-06-15T15:44:20.541Z,20.70
2018-06-15T15:46:49.100Z,20.80
2018-06-15T15:49:17.793Z,20.60
2018-06-15T15:51:46.361Z,20.50
2018-06-15T15:54:15.147Z,20.50
2018-06-15T15:56:43.737Z,20.50
2018-06-15T15:59:12.228Z,20.50
2018-06-15T16:01:40.723Z,20.50
2018-06-15T16:04:09.477Z,20.50
2018-06-15T16:06:37.987Z,20.40
2018-06-15T16:09:07.428Z,20.30
2018-06-15T16:11:35.959Z,20.10
2018-06-15T16:14:04.861Z,20.20
2018-06-15T16:16:34.282Z,20.20
2018-06-15T16:19:02.823Z,20.20
2018-06-15T16:21:31.364Z,20.10
2018-06-15T16:23:59.920Z,20.00
2018-06-15T16:26:28.544Z,20.00
2018-06-15T16:28:57.092Z,20.00
2018-06-15T16:31:25.663Z,20.10
2018-06-15T16:33:54.224Z,20.00
2018-06-15T16:36:22.837Z,19.80
2018-06-15T16:38:51.574Z,19.70
2018-06-15T16:41:20.138Z,19.80
2018-06-15T16:43:48.647Z,19.90
2018-06-15T16:46:17.199Z,19.80
2018-06-15T16:48:45.892Z,19.80
2018-06-15T16:51:14.439Z,19.70
2018-06-15T16:53:43.220Z,19.80
2018-06-15T16:56:13.024Z,20.10
2018-06-15T16:58:41.526Z,20.00
2018-06-15T17:01:10.361Z,19.90
2018-06-15T17:03:38.933Z,19.90
2018-06-15T17:06:07.439Z,19.90
2018-06-15T17:08:35.992Z,19.80
2018-06-15T17:11:04.534Z,19.70
2018-06-15T17:13:33.057Z,19.70
2018-06-15T17:18:29.774Z,19.60
2018-06-15T17:20:58.318Z,19.40
2018-06-15T17:23:28.084Z,19.40
2018-06-15T17:25:56.590Z,19.50
2018-06-15T17:28:25.105Z,19.30
2018-06-15T17:30:53.604Z,19.30
2018-06-15T17:33:22.108Z,19.20
2018-06-15T17:35:50.631Z,19.30
2018-06-15T17:38:19.157Z,19.20
2018-06-15T17:40:48.181Z,19.10
2018-06-15T17:43:16.705Z,19.00
2018-06-15T17:45:45.421Z,19.10
2018-06-15T17:48:14.083Z,19.00
2018-06-15T17:50:42.570Z,19.00
2018-06-15T17:53:11.115Z,18.90
2018-06-15T17:55:40.559Z,18.90
2018-06-15T17:58:09.117Z,19.00
2018-06-15T18:00:38.096Z,18.80
2018-06-15T18:03:07.045Z,18.80
2018-06-15T18:05:35.779Z,18.70
2018-06-15T18:08:04.654Z,18.70
2018-06-15T18:10:33.316Z,18.60
2018-06-15T18:13:01.846Z,18.60
2018-06-15T18:15:30.416Z,18.60
2018-06-15T18:17:58.931Z,18.60
2018-06-15T18:20:27.495Z,18.50
2018-06-15T18:22:56.004Z,18.40
2018-06-15T18:25:24.521Z,18.50
2018-06-15T18:27:53.022Z,18.40
2018-06-15T18:30:21.753Z,18.30
2018-06-15T18:32:50.280Z,18.20
2018-06-15T18:35:18.776Z,18.20
2018-06-15T18:37:47.294Z,18.10
2018-06-15T18:40:15.831Z,18.00
2018-06-15T18:42:44.341Z,18.00
2018-06-15T18:45:12.921Z,17.90
2018-06-15T18:47:41.574Z,17.80
2018-06-15T18:50:10.608Z,17.70
2018-06-15T18:52:39.372Z,17.60
2018-06-15T18:55:08.533Z,17.50
2018-06-15T18:57:37.008Z,17.40
2018-06-15T19:00:05.743Z,17.40
2018-06-15T19:02:34.316Z,17.10
2018-06-15T19:05:03.177Z,17.30
2018-06-15T19:07:31.753Z,17.20
2018-06-15T19:10:00.410Z,17.20
2018-06-15T19:12:29.016Z,17.20
2018-06-15T19:14:57.713Z,17.10
2018-06-15T19:17:26.240Z,17.10
2018-06-15T19:19:54.836Z,17.00
2018-06-15T19:22:23.320Z,17.00
2018-06-15T19:24:52.162Z,17.00
2018-06-15T19:27:20.679Z,16.90
2018-06-15T19:29:49.167Z,16.90
2018-06-15T19:34:46.066Z,16.80
2018-06-15T19:37:14.638Z,16.80
2018-06-15T19:39:43.223Z,16.70
2018-06-15T19:42:11.771Z,16.70
2018-06-15T19:44:40.332Z,16.60
2018-06-15T19:47:08.780Z,16.60
2018-06-15T19:49:37.300Z,16.50
2018-06-15T19:52:06.072Z,16.50
2018-06-15T19:54:34.557Z,16.40
2018-06-15T19:57:03.087Z,16.30
2018-06-15T19:59:31.655Z,16.30
2018-06-15T20:02:00.176Z,16.20
2018-06-15T20:04:29.538Z,16.20
2018-06-15T20:06:58.032Z,16.20
2018-06-15T20:09:26.541Z,16.10
2018-06-15T20:11:55.298Z,16.10
2018-06-15T20:14:24.145Z,16.00
2018-06-15T20:16:52.977Z,15.90
2018-06-15T20:19:22.050Z,16.00
2018-06-15T20:21:50.780Z,16.00
2018-06-15T20:24:19.363Z,16.00
2018-06-15T20:26:47.868Z,15.90
2018-06-15T20:29:16.389Z,15.80
2018-06-15T20:31:44.906Z,15.70
2018-06-15T20:34:13.466Z,15.70
2018-06-15T20:36:41.993Z,15.60
2018-06-15T20:39:11.416Z,15.60
2018-06-15T20:41:39.941Z,15.60
2018-06-15T20:44:08.640Z,15.50
2018-06-15T20:46:37.270Z,15.70
2018-06-15T20:49:05.851Z,15.40
2018-06-15T20:51:34.362Z,15.10
2018-06-15T20:54:02.879Z,15.10
2018-06-15T20:56:31.622Z,15.10
2018-06-15T20:59:00.146Z,15.20
2018-06-15T21:01:28.914Z,15.20
2018-06-15T21:03:57.512Z,15.20
2018-06-15T21:06:26.190Z,15.30
2018-06-15T21:08:54.808Z,15.20
2018-06-15T21:11:23.306Z,15.30
2018-06-15T21:13:51.973Z,15.30
2018-06-15T21:16:20.642Z,15.10
2018-06-15T21:18:49.156Z,15.20
2018-06-15T21:21:17.701Z,15.40
2018-06-15T21:23:46.211Z,15.10
2018-06-15T21:26:15.649Z,15.10
2018-06-15T21:28:45.434Z,15.10
2018-06-15T21:31:14.019Z,15.10
2018-06-15T21:33:42.566Z,14.90
2018-06-15T21:36:11.080Z,15.00
2018-06-15T21:38:39.585Z,14.90
2018-06-15T21:41:08.658Z,14.90
2018-06-15T21:43:37.194Z,14.80
2018-06-15T21:46:06.047Z,14.80
2018-06-15T21:48:34.722Z,14.90
2018-06-15T21:51:03.693Z,14.80
2018-06-15T21:53:32.265Z,14.70
2018-06-15T21:56:00.925Z,14.70
2018-06-15T21:58:30.131Z,14.80
2018-06-15T22:00:58.652Z,14.90
2018-06-15T22:03:27.757Z,14.90
2018-06-15T22:05:56.416Z,14.90
2018-06-15T22:08:24.969Z,14.80
2018-06-15T22:10:53.507Z,14.70
2018-06-15T22:13:22.236Z,14.60
2018-06-15T22:15:50.734Z,14.60
2018-06-15T22:18:19.343Z,14.60
2018-06-15T22:20:47.898Z,14.40
2018-06-15T22:23:16.424Z,14.50
2018-06-15T22:25:44.988Z,14.50
2018-06-15T22:28:13.500Z,14.60
2018-06-15T22:30:41.986Z,14.50
2018-06-15T22:35:38.806Z,14.80
2018-06-15T22:38:08.398Z,14.70
2018-06-15T22:40:36.894Z,14.60
2018-06-15T22:43:05.519Z,14.60
2018-06-15T22:45:34.259Z,14.60
2018-06-15T22:48:02.728Z,14.60
2018-06-15T22:50:31.507Z,14.90
2018-06-15T22:53:00.182Z,14.70
2018-06-15T22:55:28.662Z,14.80
2018-06-15T22:57:57.306Z,14.80
2018-06-15T23:00:26.846Z,14.70
2018-06-15T23:02:55.554Z,14.90
2018-06-15T23:05:24.065Z,14.90
2018-06-15T23:07:52.776Z,14.90
2018-06-15T23:10:22.226Z,14.90
2018-06-15T23:12:51.369Z,14.90
2018-06-15T23:15:19.856Z,14.90
2018-06-15T23:17:48.338Z,14.90
2018-06-15T23:20:16.918Z,15.00
2018-06-15T23:22:45.481Z,14.70
2018-06-15T23:25:14.186Z,14.80
2018-06-15T23:27:42.652Z,14.70
2018-06-15T23:30:11.148Z,14.60
2018-06-15T23:32:40.020Z,14.40
2018-06-15T23:37:36.905Z,14.50
2018-06-15T23:40:05.692Z,14.50
2018-06-15T23:42:34.805Z,14.80
2018-06-15T23:45:03.471Z,14.80
2018-06-15T23:47:32.483Z,14.60
2018-06-15T23:50:01.422Z,14.60
2018-06-15T23:54:59.167Z,15.10
2018-06-15T23:57:27.711Z,15.10
2018-06-15T23:59:57.181Z,15.10
